createdAt,value
2023-05-20T00:00:44.663Z,23.31
2023-05-20T00:01:44.700Z,23.33
2023-05-20T00:02:44.803Z,23.33
2023-05-20T00:03:44.910Z,23.31
2023-05-20T00:04:44.859Z,23.30
2023-05-20T00:05:44.867Z,23.33
2023-05-20T00:06:44.854Z,23.30
2023-05-20T00:07:44.891Z,23.30
2023-05-20T00:08:44.937Z,23.31
2023-05-20T00:09:44.940Z,23.30
2023-05-20T00:10:44.983Z,23.30
2023-05-20T00:11:45.102Z,23.28
2023-05-20T00:12:45.069Z,23.31
2023-05-20T00:13:45.077Z,23.28
2023-05-20T00:14:45.099Z,23.28
2023-05-20T00:15:45.125Z,23.30
2023-05-20T00:16:45.273Z,23.30
2023-05-20T00:17:45.199Z,23.31
2023-05-20T00:18:45.224Z,23.28
2023-05-20T00:19:45.244Z,23.30
2023-05-20T00:20:45.269Z,23.28
2023-05-20T00:21:45.312Z,23.30
2023-05-20T00:22:45.310Z,23.28
2023-05-20T00:23:45.374Z,23.28
2023-05-20T00:24:45.409Z,23.28
2023-05-20T00:25:45.427Z,23.27
2023-05-20T00:26:45.453Z,23.27
2023-05-20T00:27:45.488Z,23.28
2023-05-20T00:28:45.519Z,23.28
2023-05-20T00:29:45.554Z,23.28
2023-05-20T00:30:45.586Z,23.28
2023-05-20T00:31:45.644Z,23.30
2023-05-20T00:32:45.705Z,23.28
2023-05-20T00:33:45.694Z,23.27
2023-05-20T00:34:45.730Z,23.28
2023-05-20T00:35:45.795Z,23.26
2023-05-20T00:36:45.837Z,23.27
2023-05-20T00:37:45.885Z,23.27
2023-05-20T00:38:45.907Z,23.26
2023-05-20T00:39:45.946Z,23.26
2023-05-20T00:40:45.972Z,23.26
2023-05-20T00:41:46.024Z,23.23
2023-05-20T00:42:46.045Z,23.27
2023-05-20T00:43:46.087Z,23.23
2023-05-20T00:44:46.113Z,23.27
2023-05-20T00:45:46.180Z,23.26
2023-05-20T00:46:46.228Z,23.26
2023-05-20T00:47:46.269Z,23.24
2023-05-20T00:48:46.291Z,23.27
2023-05-20T00:49:48.860Z,23.24
2023-05-20T00:50:46.337Z,23.27
2023-05-20T00:51:46.367Z,23.24
2023-05-20T00:52:46.410Z,23.24
2023-05-20T00:53:46.417Z,23.24
2023-05-20T00:54:46.473Z,23.23
2023-05-20T00:55:46.470Z,23.23
2023-05-20T00:56:46.492Z,23.24
2023-05-20T00:57:46.503Z,23.23
2023-05-20T00:58:46.541Z,23.24
2023-05-20T00:59:46.564Z,23.24
2023-05-20T01:00:46.566Z,23.23
2023-05-20T01:01:46.643Z,23.21
2023-05-20T01:02:46.665Z,23.23
2023-05-20T01:03:46.687Z,23.23
2023-05-20T01:04:46.691Z,23.20
2023-05-20T01:05:46.670Z,23.24
2023-05-20T01:06:46.727Z,23.21
2023-05-20T01:07:46.708Z,23.23
2023-05-20T01:08:46.777Z,23.21
2023-05-20T01:09:46.840Z,23.23
2023-05-20T01:10:46.921Z,23.23
2023-05-20T01:11:46.879Z,23.21
2023-05-20T01:12:46.956Z,23.23
2023-05-20T01:13:46.876Z,23.21
2023-05-20T01:14:46.956Z,23.21
2023-05-20T01:15:48.413Z,23.18
2023-05-20T01:16:46.950Z,23.21
2023-05-20T01:17:47.037Z,23.18
2023-05-20T01:18:46.974Z,23.23
2023-05-20T01:19:46.967Z,23.21
2023-05-20T01:20:46.985Z,23.20
2023-05-20T01:21:47.020Z,23.20
2023-05-20T01:22:47.082Z,23.20
2023-05-20T01:23:47.151Z,23.20
2023-05-20T01:24:47.146Z,23.20
2023-05-20T01:25:47.133Z,23.21
2023-05-20T01:26:47.199Z,23.18
2023-05-20T01:27:47.223Z,23.16
2023-05-20T01:28:47.180Z,23.20
2023-05-20T01:29:47.203Z,23.20
2023-05-20T01:30:47.241Z,23.18
2023-05-20T01:31:47.372Z,23.17
2023-05-20T01:32:47.339Z,23.18
2023-05-20T01:33:47.451Z,23.20
2023-05-20T01:34:47.476Z,23.21
2023-05-20T01:35:47.505Z,23.18
2023-05-20T01:36:47.547Z,23.18
2023-05-20T01:37:47.596Z,23.17
2023-05-20T01:38:47.626Z,23.18
2023-05-20T01:39:47.740Z,23.18
2023-05-20T01:40:47.878Z,23.16
2023-05-20T01:41:48.004Z,23.17
2023-05-20T01:42:47.999Z,23.17
2023-05-20T01:43:48.028Z,23.16
2023-05-20T01:44:48.076Z,23.17
2023-05-20T01:45:48.097Z,23.17
2023-05-20T01:46:48.273Z,23.16
2023-05-20T01:47:48.373Z,23.17
2023-05-20T01:48:48.402Z,23.17
2023-05-20T01:49:48.414Z,23.16
2023-05-20T01:50:48.424Z,23.17
2023-05-20T01:51:48.483Z,23.14
2023-05-20T01:52:48.477Z,23.18
2023-05-20T01:53:48.502Z,23.16
2023-05-20T01:54:48.520Z,23.17
2023-05-20T01:55:48.562Z,23.17
2023-05-20T01:56:48.570Z,23.16
2023-05-20T01:57:48.576Z,23.18
2023-05-20T01:58:48.595Z,23.14
2023-05-20T01:59:48.600Z,23.14
2023-05-20T02:00:48.634Z,23.16
2023-05-20T02:01:48.664Z,23.14
2023-05-20T02:02:48.701Z,23.13
2023-05-20T02:03:48.649Z,23.14
2023-05-20T02:04:48.656Z,23.16
2023-05-20T02:05:48.749Z,23.11
2023-05-20T02:06:48.662Z,23.11
2023-05-20T02:07:48.681Z,23.13
2023-05-20T02:08:48.695Z,23.10
2023-05-20T02:09:48.732Z,23.11
2023-05-20T02:10:48.789Z,23.14
2023-05-20T02:11:48.825Z,23.11
2023-05-20T02:12:48.877Z,23.13
2023-05-20T02:13:48.941Z,23.16
2023-05-20T02:14:48.966Z,23.13
2023-05-20T02:15:49.008Z,23.16
2023-05-20T02:16:49.096Z,23.13
2023-05-20T02:17:49.108Z,23.11
2023-05-20T02:18:49.157Z,23.13
2023-05-20T02:19:49.188Z,23.14
2023-05-20T02:20:49.231Z,23.11
2023-05-20T02:21:49.276Z,23.10
2023-05-20T02:22:49.301Z,23.14
2023-05-20T02:23:49.374Z,23.13
2023-05-20T02:24:49.386Z,23.11
2023-05-20T02:25:49.446Z,23.11
2023-05-20T02:26:49.483Z,23.14
2023-05-20T02:27:49.514Z,23.10
2023-05-20T02:28:49.549Z,23.10
2023-05-20T02:29:49.628Z,23.13
2023-05-20T02:30:49.652Z,23.11
2023-05-20T02:31:49.707Z,23.11
2023-05-20T02:32:49.735Z,23.10
2023-05-20T02:33:49.789Z,23.10
2023-05-20T02:34:49.800Z,23.11
2023-05-20T02:35:49.841Z,23.09
2023-05-20T02:36:49.892Z,23.11
2023-05-20T02:37:49.939Z,23.10
2023-05-20T02:38:49.980Z,23.10
2023-05-20T02:39:50.021Z,23.10
2023-05-20T02:40:50.054Z,23.09
2023-05-20T02:41:50.115Z,23.09
2023-05-20T02:42:50.155Z,23.10
2023-05-20T02:43:50.196Z,23.10
2023-05-20T02:44:50.274Z,23.10
2023-05-20T02:45:50.339Z,23.10
2023-05-20T02:46:50.330Z,23.09
2023-05-20T02:47:50.407Z,23.09
2023-05-20T02:48:50.428Z,23.10
2023-05-20T02:49:50.471Z,23.10
2023-05-20T02:50:50.509Z,23.07
2023-05-20T02:51:50.556Z,23.09
2023-05-20T02:52:50.579Z,23.09
2023-05-20T02:53:50.639Z,23.09
2023-05-20T02:54:50.670Z,23.10
2023-05-20T02:55:50.760Z,23.09
2023-05-20T02:56:50.753Z,23.10
2023-05-20T02:57:50.794Z,23.09
2023-05-20T02:58:50.859Z,23.07
2023-05-20T02:59:50.903Z,23.07
2023-05-20T03:00:50.927Z,23.10
2023-05-20T03:01:50.992Z,23.06
2023-05-20T03:02:51.031Z,23.07
2023-05-20T03:03:51.095Z,23.10
2023-05-20T03:04:51.142Z,23.07
2023-05-20T03:05:51.123Z,23.07
2023-05-20T03:06:51.180Z,23.07
2023-05-20T03:07:51.215Z,23.09
2023-05-20T03:08:51.253Z,23.07
2023-05-20T03:09:51.289Z,23.06
2023-05-20T03:10:51.360Z,23.06
2023-05-20T03:11:51.434Z,23.07
2023-05-20T03:12:51.449Z,23.05
2023-05-20T03:13:51.475Z,23.06
2023-05-20T03:14:51.532Z,23.07
2023-05-20T03:15:51.577Z,23.07
2023-05-20T03:16:51.606Z,23.07
2023-05-20T03:17:51.671Z,23.07
2023-05-20T03:18:51.703Z,23.05
2023-05-20T03:19:51.741Z,23.05
2023-05-20T03:20:51.780Z,23.07
2023-05-20T03:21:51.829Z,23.06
2023-05-20T03:22:51.867Z,23.06
2023-05-20T03:23:51.916Z,23.10
2023-05-20T03:24:51.957Z,23.07
2023-05-20T03:25:52.000Z,23.07
2023-05-20T03:26:52.074Z,23.05
2023-05-20T03:27:52.070Z,23.09
2023-05-20T03:28:52.134Z,23.06
2023-05-20T03:29:52.182Z,23.06
2023-05-20T03:30:52.217Z,23.05
2023-05-20T03:31:52.333Z,23.05
2023-05-20T03:32:52.350Z,23.07
2023-05-20T03:33:52.351Z,23.07
2023-05-20T03:34:52.382Z,23.07
2023-05-20T03:35:52.429Z,23.06
2023-05-20T03:36:52.463Z,23.06
2023-05-20T03:37:52.526Z,23.06
2023-05-20T03:38:52.555Z,23.07
2023-05-20T03:39:52.603Z,23.07
2023-05-20T03:40:52.631Z,23.09
2023-05-20T03:41:52.699Z,23.09
2023-05-20T03:42:52.741Z,23.09
2023-05-20T03:43:52.770Z,23.09
2023-05-20T03:44:52.818Z,23.07
2023-05-20T03:45:52.915Z,23.07
2023-05-20T03:46:53.014Z,23.07
2023-05-20T03:47:52.970Z,23.06
2023-05-20T03:48:52.993Z,23.06
2023-05-20T03:49:53.026Z,23.07
2023-05-20T03:50:53.084Z,23.07
2023-05-20T03:51:53.165Z,23.07
2023-05-20T03:52:53.159Z,23.07
2023-05-20T03:53:53.194Z,23.06
2023-05-20T03:54:53.236Z,23.07
2023-05-20T03:55:53.279Z,23.09
2023-05-20T03:56:53.341Z,23.06
2023-05-20T03:57:53.365Z,23.07
2023-05-20T03:58:53.423Z,23.06
2023-05-20T03:59:53.445Z,23.09
2023-05-20T04:00:53.520Z,23.10
2023-05-20T04:01:53.733Z,23.09
2023-05-20T04:02:53.728Z,23.06
2023-05-20T04:03:53.834Z,23.07
2023-05-20T04:04:53.711Z,23.06
2023-05-20T04:05:53.718Z,23.05
2023-05-20T04:06:53.764Z,23.09
2023-05-20T04:07:53.919Z,23.05
2023-05-20T04:08:53.946Z,23.06
2023-05-20T04:09:53.973Z,23.06
2023-05-20T04:10:54.016Z,23.10
2023-05-20T04:11:54.084Z,23.05
2023-05-20T04:12:54.047Z,23.06
2023-05-20T04:13:54.082Z,23.07
2023-05-20T04:14:54.124Z,23.05
2023-05-20T04:15:54.184Z,23.06
2023-05-20T04:16:54.373Z,23.05
2023-05-20T04:17:54.339Z,23.07
2023-05-20T04:18:54.378Z,23.06
2023-05-20T04:19:54.360Z,23.07
2023-05-20T04:20:54.403Z,23.07
2023-05-20T04:21:54.448Z,23.05
2023-05-20T04:22:54.512Z,23.07
2023-05-20T04:23:54.549Z,23.07
2023-05-20T04:24:54.605Z,23.06
2023-05-20T04:25:54.624Z,23.06
2023-05-20T04:26:54.676Z,23.07
2023-05-20T04:27:54.729Z,23.07
2023-05-20T04:28:54.757Z,23.07
2023-05-20T04:29:54.786Z,23.05
2023-05-20T04:30:54.837Z,23.07
2023-05-20T04:31:54.913Z,23.07
2023-05-20T04:32:54.958Z,23.09
2023-05-20T04:33:54.977Z,23.07
2023-05-20T04:34:55.008Z,23.07
2023-05-20T04:35:55.039Z,23.10
2023-05-20T04:36:55.076Z,23.07
2023-05-20T04:37:55.123Z,23.07
2023-05-20T04:38:55.195Z,23.09
2023-05-20T04:39:55.231Z,23.09
2023-05-20T04:40:55.258Z,23.07
2023-05-20T04:41:55.300Z,23.07
2023-05-20T04:42:55.358Z,23.06
2023-05-20T04:43:55.397Z,23.09
2023-05-20T04:44:55.427Z,23.10
2023-05-20T04:45:55.521Z,23.10
2023-05-20T04:46:55.521Z,23.11
2023-05-20T04:47:55.594Z,23.10
2023-05-20T04:48:55.617Z,23.10
2023-05-20T04:49:55.656Z,23.10
2023-05-20T04:50:55.693Z,23.11
2023-05-20T04:51:55.729Z,23.13
2023-05-20T04:52:55.860Z,23.10
2023-05-20T04:53:55.873Z,23.13
2023-05-20T04:54:55.864Z,23.10
2023-05-20T04:55:55.904Z,23.11
2023-05-20T04:56:55.956Z,23.11
2023-05-20T04:57:55.996Z,23.13
2023-05-20T04:58:56.040Z,23.11
2023-05-20T04:59:56.070Z,23.11
2023-05-20T05:00:56.129Z,23.10
2023-05-20T05:01:56.247Z,23.11
2023-05-20T05:02:56.251Z,23.11
2023-05-20T05:03:56.261Z,23.13
2023-05-20T05:04:56.441Z,23.10
2023-05-20T05:05:56.350Z,23.13
2023-05-20T05:06:56.400Z,23.10
2023-05-20T05:07:56.432Z,23.11
2023-05-20T05:08:56.485Z,23.16
2023-05-20T05:09:56.530Z,23.11
2023-05-20T05:10:56.602Z,23.13
2023-05-20T05:11:56.611Z,23.10
2023-05-20T05:12:56.669Z,23.13
2023-05-20T05:13:56.714Z,23.10
2023-05-20T05:14:56.755Z,23.11
2023-05-20T05:15:56.817Z,23.10
2023-05-20T05:16:56.845Z,23.13
2023-05-20T05:17:56.907Z,23.10
2023-05-20T05:18:56.967Z,23.13
2023-05-20T05:19:56.964Z,23.13
2023-05-20T05:20:57.006Z,23.11
2023-05-20T05:21:57.052Z,23.14
2023-05-20T05:22:57.110Z,23.13
2023-05-20T05:23:58.452Z,23.14
2023-05-20T05:24:57.249Z,23.11
2023-05-20T05:25:57.251Z,23.10
2023-05-20T05:26:57.284Z,23.13
2023-05-20T05:27:57.363Z,23.13
2023-05-20T05:28:57.422Z,23.10
2023-05-20T05:29:57.418Z,23.13
2023-05-20T05:30:57.465Z,23.13
2023-05-20T05:31:57.505Z,23.11
2023-05-20T05:32:57.645Z,23.10
2023-05-20T05:33:57.569Z,23.10
2023-05-20T05:34:57.598Z,23.10
2023-05-20T05:35:57.641Z,23.11
2023-05-20T05:36:57.733Z,23.11
2023-05-20T05:37:57.724Z,23.13
2023-05-20T05:38:57.793Z,23.14
2023-05-20T05:39:57.827Z,23.11
2023-05-20T05:40:57.868Z,23.13
2023-05-20T05:41:57.907Z,23.11
2023-05-20T05:42:57.943Z,23.11
2023-05-20T05:43:58.014Z,23.11
2023-05-20T05:44:58.041Z,23.14
2023-05-20T05:45:58.115Z,23.11
2023-05-20T05:46:58.131Z,23.13
2023-05-20T05:47:58.175Z,23.14
2023-05-20T05:48:58.242Z,23.14
2023-05-20T05:49:58.239Z,23.13
2023-05-20T05:50:58.300Z,23.11
2023-05-20T05:51:58.331Z,23.14
2023-05-20T05:52:58.362Z,23.14
2023-05-20T05:53:58.413Z,23.13
2023-05-20T05:54:58.449Z,23.13
2023-05-20T05:55:58.477Z,23.13
2023-05-20T05:56:58.547Z,23.11
2023-05-20T05:57:58.558Z,23.14
2023-05-20T05:58:58.612Z,23.11
2023-05-20T05:59:58.667Z,23.13
2023-05-20T06:00:58.745Z,23.13
2023-05-20T06:01:58.754Z,23.14
2023-05-20T06:02:58.894Z,23.14
2023-05-20T06:03:58.924Z,23.14
2023-05-20T06:04:58.863Z,23.14
2023-05-20T06:05:58.903Z,23.13
2023-05-20T06:06:58.956Z,23.13
2023-05-20T06:07:58.983Z,23.14
2023-05-20T06:08:59.065Z,23.11
2023-05-20T06:09:59.139Z,23.11
2023-05-20T06:10:59.143Z,23.11
2023-05-20T06:11:59.211Z,23.14
2023-05-20T06:12:59.217Z,23.10
2023-05-20T06:13:59.293Z,23.11
2023-05-20T06:14:59.298Z,23.10
2023-05-20T06:15:59.448Z,23.13
2023-05-20T06:16:59.458Z,23.11
2023-05-20T06:18:00.012Z,23.11
2023-05-20T06:19:01.837Z,23.11
2023-05-20T06:19:59.461Z,23.13
2023-05-20T06:20:59.483Z,23.11
2023-05-20T06:21:59.508Z,23.10
2023-05-20T06:22:59.523Z,23.11
2023-05-20T06:23:59.534Z,23.13
2023-05-20T06:24:59.561Z,23.10
2023-05-20T06:25:59.562Z,23.11
2023-05-20T06:26:59.542Z,23.13
2023-05-20T06:27:59.549Z,23.13
2023-05-20T06:28:59.601Z,23.14
2023-05-20T06:29:59.602Z,23.13
2023-05-20T06:30:59.641Z,23.13
2023-05-20T06:31:59.684Z,23.13
2023-05-20T06:32:59.680Z,23.14
2023-05-20T06:33:59.661Z,23.13
2023-05-20T06:34:59.684Z,23.13
2023-05-20T06:35:59.644Z,23.14
2023-05-20T06:36:59.648Z,23.14
2023-05-20T06:37:59.731Z,23.13
2023-05-20T06:38:59.727Z,23.16
2023-05-20T06:39:59.678Z,23.16
2023-05-20T06:40:59.713Z,23.13
2023-05-20T06:41:59.705Z,23.14
2023-05-20T06:42:59.736Z,23.16
2023-05-20T06:43:59.761Z,23.18
2023-05-20T06:44:59.756Z,23.17
2023-05-20T06:45:59.826Z,23.17
2023-05-20T06:46:59.803Z,23.17
2023-05-20T06:47:59.798Z,23.18
2023-05-20T06:48:59.826Z,23.17
2023-05-20T06:49:59.813Z,23.18
2023-05-20T06:50:59.840Z,23.18
2023-05-20T06:51:59.855Z,23.18
2023-05-20T06:52:59.903Z,23.23
2023-05-20T06:53:59.872Z,23.20
2023-05-20T06:54:59.879Z,23.21
2023-05-20T06:55:59.941Z,23.20
2023-05-20T06:56:59.903Z,23.23
2023-05-20T06:57:59.909Z,23.21
2023-05-20T06:58:59.938Z,23.23
2023-05-20T06:59:59.970Z,23.24
2023-05-20T07:00:59.968Z,23.24
2023-05-20T07:02:00.027Z,23.24
2023-05-20T07:03:00.025Z,23.27
2023-05-20T07:04:00.026Z,23.26
2023-05-20T07:05:00.003Z,23.24
2023-05-20T07:05:59.986Z,23.26
2023-05-20T07:07:00.037Z,23.27
2023-05-20T07:08:00.048Z,23.27
2023-05-20T07:09:00.104Z,23.26
2023-05-20T07:10:00.161Z,23.27
2023-05-20T07:11:00.175Z,23.27
2023-05-20T07:12:00.203Z,23.27
2023-05-20T07:13:00.247Z,23.28
2023-05-20T07:14:00.265Z,23.31
2023-05-20T07:15:00.271Z,23.31
2023-05-20T07:16:00.326Z,23.31
2023-05-20T07:17:00.349Z,23.33
2023-05-20T07:18:00.396Z,23.31
2023-05-20T07:19:00.446Z,23.30
2023-05-20T07:20:00.448Z,23.31
2023-05-20T07:21:00.449Z,23.33
2023-05-20T07:22:00.505Z,23.34
2023-05-20T07:23:00.528Z,23.34
2023-05-20T07:24:00.902Z,23.33
2023-05-20T07:25:00.609Z,23.36
2023-05-20T07:26:00.636Z,23.34
2023-05-20T07:27:00.669Z,23.37
2023-05-20T07:28:00.722Z,23.36
2023-05-20T07:29:00.748Z,23.37
2023-05-20T07:30:00.762Z,23.36
2023-05-20T07:31:00.778Z,23.34
2023-05-20T07:32:00.946Z,23.38
2023-05-20T07:33:00.927Z,23.33
2023-05-20T07:34:00.879Z,23.38
2023-05-20T07:35:00.944Z,23.37
2023-05-20T07:36:00.986Z,23.37
2023-05-20T07:37:00.994Z,23.38
2023-05-20T07:38:01.040Z,23.38
2023-05-20T07:39:04.725Z,23.40
2023-05-20T07:40:02.097Z,23.41
2023-05-20T07:41:01.086Z,23.38
2023-05-20T07:42:01.090Z,23.41
2023-05-20T07:43:01.086Z,23.43
2023-05-20T07:44:01.098Z,23.43
2023-05-20T07:45:01.093Z,23.43
2023-05-20T07:46:01.149Z,23.45
2023-05-20T07:47:01.124Z,23.41
2023-05-20T07:48:01.129Z,23.44
2023-05-20T07:49:01.121Z,23.44
2023-05-20T07:50:01.087Z,23.45
2023-05-20T07:51:01.134Z,23.45
2023-05-20T07:52:02.996Z,23.48
2023-05-20T07:53:01.129Z,23.45
2023-05-20T07:54:01.117Z,23.47
2023-05-20T07:55:01.101Z,23.47
2023-05-20T07:56:01.150Z,23.50
2023-05-20T07:57:01.108Z,23.47
2023-05-20T07:58:01.125Z,23.51
2023-05-20T07:59:01.165Z,23.51
2023-05-20T08:00:01.118Z,23.50
2023-05-20T08:01:01.094Z,23.51
2023-05-20T08:02:01.143Z,23.51
2023-05-20T08:03:01.394Z,23.55
2023-05-20T08:04:01.413Z,23.54
2023-05-20T08:05:01.462Z,23.55
2023-05-20T08:06:01.552Z,23.54
2023-05-20T08:07:01.551Z,23.55
2023-05-20T08:08:01.581Z,23.58
2023-05-20T08:09:01.613Z,23.54
2023-05-20T08:10:01.646Z,23.58
2023-05-20T08:11:01.650Z,23.57
2023-05-20T08:12:01.622Z,23.60
2023-05-20T08:13:01.608Z,23.60
2023-05-20T08:14:01.624Z,23.61
2023-05-20T08:15:01.625Z,23.61
2023-05-20T08:16:01.630Z,23.62
2023-05-20T08:17:01.732Z,23.61
2023-05-20T08:18:01.719Z,23.61
2023-05-20T08:19:01.728Z,23.61
2023-05-20T08:20:01.692Z,23.62
2023-05-20T08:21:01.668Z,23.61
2023-05-20T08:22:01.651Z,23.61
2023-05-20T08:23:01.630Z,23.62
2023-05-20T08:24:01.651Z,23.62
2023-05-20T08:25:01.660Z,23.65
2023-05-20T08:26:01.646Z,23.64
2023-05-20T08:27:01.654Z,23.64
2023-05-20T08:28:01.650Z,23.64
2023-05-20T08:29:01.654Z,23.64
2023-05-20T08:30:01.643Z,23.64
2023-05-20T08:31:01.787Z,23.65
2023-05-20T08:32:01.805Z,23.64
2023-05-20T08:33:01.993Z,23.64
2023-05-20T08:34:02.014Z,23.65
2023-05-20T08:35:02.021Z,23.64
2023-05-20T08:36:02.027Z,23.64
2023-05-20T08:37:02.029Z,23.64
2023-05-20T08:38:02.029Z,23.62
2023-05-20T08:39:02.049Z,23.65
2023-05-20T08:40:02.073Z,23.65
2023-05-20T08:41:03.925Z,23.65
2023-05-20T08:42:02.070Z,23.65
2023-05-20T08:43:02.067Z,23.65
2023-05-20T08:44:02.097Z,23.65
2023-05-20T08:45:02.169Z,23.65
2023-05-20T08:46:02.317Z,23.64
2023-05-20T08:47:02.366Z,23.66
2023-05-20T08:48:02.577Z,23.65
2023-05-20T08:49:02.580Z,23.64
2023-05-20T08:50:02.704Z,23.65
2023-05-20T08:51:02.783Z,23.64
2023-05-20T08:52:02.886Z,23.64
2023-05-20T08:53:03.006Z,23.65
2023-05-20T08:54:03.103Z,23.65
2023-05-20T08:55:03.208Z,23.62
2023-05-20T08:56:03.590Z,23.62
2023-05-20T08:57:03.215Z,23.64
2023-05-20T08:58:03.228Z,23.65
2023-05-20T08:59:03.242Z,23.62
2023-05-20T09:00:03.300Z,23.65
2023-05-20T09:01:03.316Z,23.65
2023-05-20T09:02:03.390Z,23.62
2023-05-20T09:03:03.448Z,23.64
2023-05-20T09:04:03.541Z,23.65
2023-05-20T09:05:03.609Z,23.66
2023-05-20T09:06:03.561Z,23.66
2023-05-20T09:07:03.575Z,23.64
2023-05-20T09:08:05.242Z,23.64
2023-05-20T09:09:03.686Z,23.66
2023-05-20T09:10:03.697Z,23.64
2023-05-20T09:11:03.724Z,23.64
2023-05-20T09:12:03.727Z,23.66
2023-05-20T09:13:03.748Z,23.65
2023-05-20T09:14:03.864Z,23.66
2023-05-20T09:15:03.971Z,23.64
2023-05-20T09:16:04.114Z,23.64
2023-05-20T09:17:04.064Z,23.66
2023-05-20T09:18:04.107Z,23.65
2023-05-20T09:19:04.143Z,23.65
2023-05-20T09:20:04.087Z,23.65
2023-05-20T09:21:04.098Z,23.66
2023-05-20T09:22:04.188Z,23.65
2023-05-20T09:23:04.180Z,23.66
2023-05-20T09:24:04.224Z,23.64
2023-05-20T09:25:04.206Z,23.61
2023-05-20T09:26:04.248Z,23.66
2023-05-20T09:27:04.220Z,23.64
2023-05-20T09:28:04.249Z,23.66
2023-05-20T09:29:04.274Z,23.64
2023-05-20T09:30:04.276Z,23.62
2023-05-20T09:31:04.284Z,23.66
2023-05-20T09:32:04.396Z,23.66
2023-05-20T09:33:04.426Z,23.69
2023-05-20T09:34:04.414Z,23.68
2023-05-20T09:35:04.428Z,23.68
2023-05-20T09:36:04.423Z,23.68
2023-05-20T09:37:04.427Z,23.68
2023-05-20T09:38:04.429Z,23.71
2023-05-20T09:39:04.458Z,23.71
2023-05-20T09:40:04.464Z,23.71
2023-05-20T09:41:04.477Z,23.72
2023-05-20T09:42:04.495Z,23.72
2023-05-20T09:43:04.500Z,23.73
2023-05-20T09:44:04.525Z,23.72
2023-05-20T09:45:04.548Z,23.75
2023-05-20T09:46:04.629Z,23.73
2023-05-20T09:47:06.357Z,23.73
2023-05-20T09:48:04.600Z,23.75
2023-05-20T09:49:04.564Z,23.73
2023-05-20T09:50:04.582Z,23.75
2023-05-20T09:51:04.564Z,23.76
2023-05-20T09:52:04.578Z,23.75
2023-05-20T09:53:04.596Z,23.76
2023-05-20T09:54:04.570Z,23.76
2023-05-20T09:55:04.599Z,23.75
2023-05-20T09:56:04.685Z,23.73
2023-05-20T09:57:04.580Z,23.75
2023-05-20T09:58:04.593Z,23.72
2023-05-20T09:59:04.599Z,23.76
2023-05-20T10:00:04.580Z,23.75
2023-05-20T10:01:04.610Z,23.76
2023-05-20T10:02:04.601Z,23.78
2023-05-20T10:03:04.756Z,23.76
2023-05-20T10:04:04.700Z,23.76
2023-05-20T10:05:04.613Z,23.76
2023-05-20T10:06:04.629Z,23.79
2023-05-20T10:07:04.620Z,23.79
2023-05-20T10:08:04.641Z,23.81
2023-05-20T10:09:04.640Z,23.78
2023-05-20T10:10:04.649Z,23.79
2023-05-20T10:11:04.641Z,23.79
2023-05-20T10:12:04.643Z,23.81
2023-05-20T10:13:04.649Z,23.82
2023-05-20T10:14:04.658Z,23.82
2023-05-20T10:15:04.733Z,23.79
2023-05-20T10:16:04.690Z,23.82
2023-05-20T10:17:04.661Z,23.81
2023-05-20T10:18:04.744Z,23.82
2023-05-20T10:19:04.725Z,23.83
2023-05-20T10:20:06.743Z,23.83
2023-05-20T10:21:04.648Z,23.85
2023-05-20T10:22:04.672Z,23.86
2023-05-20T10:23:04.670Z,23.86
2023-05-20T10:24:04.663Z,23.86
2023-05-20T10:25:04.658Z,23.86
2023-05-20T10:26:04.668Z,23.85
2023-05-20T10:27:04.680Z,23.85
2023-05-20T10:28:04.709Z,23.85
2023-05-20T10:29:04.675Z,23.88
2023-05-20T10:30:04.696Z,23.88
2023-05-20T10:31:04.705Z,23.89
2023-05-20T10:32:04.718Z,23.88
2023-05-20T10:33:04.895Z,23.89
2023-05-20T10:34:04.997Z,23.89
2023-05-20T10:35:04.757Z,23.89
2023-05-20T10:36:04.775Z,23.92
2023-05-20T10:37:04.828Z,23.91
2023-05-20T10:38:04.870Z,23.93
2023-05-20T10:39:04.895Z,23.92
2023-05-20T10:40:04.918Z,23.92
2023-05-20T10:41:04.937Z,23.92
2023-05-20T10:42:04.989Z,23.92
2023-05-20T10:43:05.035Z,23.93
2023-05-20T10:44:05.257Z,23.92
2023-05-20T10:45:05.165Z,23.92
2023-05-20T10:46:07.677Z,23.93
2023-05-20T10:48:05.296Z,23.93
2023-05-20T10:49:05.468Z,23.93
2023-05-20T10:50:05.255Z,23.95
2023-05-20T10:51:05.259Z,23.96
2023-05-20T10:52:05.252Z,23.96
2023-05-20T10:53:05.248Z,23.96
2023-05-20T10:54:05.288Z,23.98
2023-05-20T10:55:05.309Z,23.99
2023-05-20T10:56:05.382Z,24.00
2023-05-20T10:57:05.452Z,24.00
2023-05-20T10:58:05.517Z,24.00
2023-05-20T10:59:05.589Z,23.98
2023-05-20T11:00:05.645Z,23.99
2023-05-20T11:01:05.770Z,24.00
2023-05-20T11:02:05.774Z,24.02
2023-05-20T11:03:05.867Z,24.05
2023-05-20T11:04:06.018Z,24.03
2023-05-20T11:05:05.960Z,24.03
2023-05-20T11:06:06.027Z,24.02
2023-05-20T11:07:06.083Z,24.00
2023-05-20T11:08:13.666Z,24.03
2023-05-20T11:09:07.130Z,24.05
2023-05-20T11:10:06.097Z,24.05
2023-05-20T11:11:06.096Z,24.05
2023-05-20T11:12:06.079Z,24.05
2023-05-20T11:13:06.108Z,24.05
2023-05-20T11:14:06.101Z,24.08
2023-05-20T11:15:06.082Z,24.08
2023-05-20T11:16:06.172Z,24.09
2023-05-20T11:17:06.145Z,24.08
2023-05-20T11:18:06.124Z,24.10
2023-05-20T11:19:06.207Z,24.08
2023-05-20T11:20:06.241Z,24.09
2023-05-20T11:21:06.265Z,24.09
2023-05-20T11:22:06.339Z,24.10
2023-05-20T11:23:06.382Z,24.09
2023-05-20T11:24:06.464Z,24.09
2023-05-20T11:25:06.535Z,24.08
2023-05-20T11:26:06.588Z,24.09
2023-05-20T11:27:06.669Z,24.09
2023-05-20T11:28:06.735Z,24.09
2023-05-20T11:29:06.781Z,24.12
2023-05-20T11:30:06.854Z,24.10
2023-05-20T11:31:06.914Z,24.09
2023-05-20T11:32:07.010Z,24.09
2023-05-20T11:33:07.080Z,24.09
2023-05-20T11:34:07.137Z,24.06
2023-05-20T11:35:07.171Z,24.09
2023-05-20T11:36:16.303Z,24.10
2023-05-20T11:37:08.263Z,24.10
2023-05-20T11:38:07.238Z,24.08
2023-05-20T11:39:07.238Z,24.08
2023-05-20T11:40:07.241Z,24.09
2023-05-20T11:41:07.251Z,24.08
2023-05-20T11:42:07.240Z,24.08
2023-05-20T11:43:07.246Z,24.08
2023-05-20T11:44:07.242Z,24.10
2023-05-20T11:45:07.256Z,24.08
2023-05-20T11:46:07.323Z,24.06
2023-05-20T11:47:07.392Z,24.08
2023-05-20T11:48:07.481Z,24.06
2023-05-20T11:49:07.418Z,24.05
2023-05-20T11:50:07.414Z,24.05
2023-05-20T11:51:07.421Z,24.03
2023-05-20T11:52:07.417Z,24.05
2023-05-20T11:53:07.397Z,24.06
2023-05-20T11:54:07.416Z,24.06
2023-05-20T11:55:07.398Z,24.03
2023-05-20T11:56:07.401Z,24.08
2023-05-20T11:57:07.432Z,24.05
2023-05-20T11:58:07.474Z,24.03
2023-05-20T11:59:07.565Z,24.03
2023-05-20T12:00:07.602Z,24.05
2023-05-20T12:01:20.955Z,24.02
2023-05-20T12:02:08.703Z,24.02
2023-05-20T12:03:07.732Z,24.03
2023-05-20T12:04:07.748Z,24.03
2023-05-20T12:05:07.645Z,24.02
2023-05-20T12:06:07.652Z,24.05
2023-05-20T12:07:07.651Z,24.05
2023-05-20T12:08:07.640Z,24.03
2023-05-20T12:09:07.665Z,24.03
2023-05-20T12:10:07.650Z,24.03
2023-05-20T12:11:07.680Z,24.05
2023-05-20T12:12:07.632Z,24.06
2023-05-20T12:13:07.640Z,24.03
2023-05-20T12:14:07.675Z,24.02
2023-05-20T12:15:07.631Z,24.03
2023-05-20T12:16:07.715Z,24.06
2023-05-20T12:17:07.651Z,24.05
2023-05-20T12:18:07.672Z,24.05
2023-05-20T12:19:07.730Z,24.00
2023-05-20T12:20:07.659Z,24.03
2023-05-20T12:21:07.620Z,24.02
2023-05-20T12:22:07.633Z,24.03
2023-05-20T12:23:07.643Z,24.03
2023-05-20T12:24:07.625Z,24.05
2023-05-20T12:25:07.618Z,24.02
2023-05-20T12:26:07.614Z,24.03
2023-05-20T12:27:07.614Z,24.03
2023-05-20T12:28:07.591Z,24.02
2023-05-20T12:29:07.642Z,24.03
2023-05-20T12:30:07.599Z,24.05
2023-05-20T12:31:07.741Z,24.03
2023-05-20T12:32:07.766Z,24.05
2023-05-20T12:33:07.691Z,24.03
2023-05-20T12:34:07.596Z,24.05
2023-05-20T12:35:07.570Z,24.03
2023-05-20T12:36:07.575Z,24.05
2023-05-20T12:37:07.591Z,24.06
2023-05-20T12:38:07.634Z,24.05
2023-05-20T12:39:07.725Z,24.05
2023-05-20T12:40:07.772Z,24.05
2023-05-20T12:41:07.835Z,24.06
2023-05-20T12:42:07.873Z,24.06
2023-05-20T12:43:07.981Z,24.06
2023-05-20T12:44:08.018Z,24.06
2023-05-20T12:45:08.058Z,24.06
2023-05-20T12:46:08.116Z,24.05
2023-05-20T12:47:08.210Z,24.05
2023-05-20T12:48:08.421Z,24.05
2023-05-20T12:49:08.321Z,24.05
2023-05-20T12:50:08.384Z,24.06
2023-05-20T12:51:08.464Z,24.03
2023-05-20T12:52:12.082Z,24.05
2023-05-20T12:53:09.489Z,24.05
2023-05-20T12:54:08.458Z,24.05